Kezdőlap
METAR-TAF:

METAR-TAF

Repülőterek :

Savannakhet, Laosz

földrajzi szélesség: 16-33-24N, földrajzi hosszúság: 104-45-34E, magasság: 155 m

Jelenlegi meteorológiai megfigyelések

A jelentés 9 órával és 10 perccel ezelõtt készült, 12:00 UTC
Kelet-északkeleti szél 4 kt
Hőmérséklet 32°C
Páratartalom 59%
Légköri nyomás 1007 hPa
Látótávolság: 3000 m
Kevés felhő 2000 lábon
Szórványos felhőzet 10000 lábon
Száraz légköri homály,

METAR: VLSK 151200Z 06004KT 3000 HZ FEW020 SCT100 32/23 Q1007 NOSIG

Idő: 04:10 (21:10 UTC)

Előrejelzés

A jelentés 4 órával és 10 perccel ezelõtt készült, 17:00 UTC
Az előrejelzés 15-én 18 óra UTC és 16-én 18 óra UTC között érvényes
Nyugat-délnyugati szél 4 kt
Látótávolság: 7000 m
Szórványos felhőzet 2000 lábon
Szakadozott felhőzet 10000 lábon

TAF: VLSK 151700Z 1518/1618 24004KT 7000 SCT020 BKN100

Meteorológiai megfigyelések és előrejelzések több, mint 4000 repülőtéren (METAR és TAF jelentéseket).

A térképen piros és sárga pontok jelzik az elérhető meteorológiai állomásokat.

Mozgassa az egeret a pont fölött, hogy megjelenjen az állomás neve.

Azután kattintson az időjárási megfigyelések és előrejelzések megtekintéséhez.

A térkép megváltoztatása: kattintson a fekete keresztel jelölt zöld gombra ráközelítéshez, a vonallal jelölt zöld gombra távolításhoz, vagy a zöld nyilakra a szomszédos térképek eléréséhez.


METAR-TAF: